Time;durP1;ratioP1;P1;durP2;ratioP2;P2;SDS_P1;SDS_P2;PMS_P1;PMS_P2;Temp;Humidity;BMP_temperature;BMP_pressure;BME280_temperature;BME280_humidity;BME280_pressure;Samples;Min_cycle;Max_cycle;Signal;HPM_P1;HPM_P2
2023/04/07 00:01:57;;;;;;;0.20;0.10;;;;;;;;;;4969430;28;20120;-78
2023/04/07 00:04:23;;;;;;;0.20;0.10;;;;;;;;;;4983825;28;20473;-79
2023/04/07 00:06:50;;;;;;;0.20;0.20;;;;;;;;;;4984404;28;20038;-78
2023/04/07 00:09:16;;;;;;;0.20;0.20;;;;;;;;;;4989563;28;20496;-80
2023/04/07 00:11:42;;;;;;;0.20;0.20;;;;;;;;;;4995250;28;20132;-78
2023/04/07 00:14:08;;;;;;;1.20;0.60;;;;;;;;;;4979447;28;20038;-79
2023/04/07 00:16:34;;;;;;;3.22;0.55;;;;;;;;;;4977212;28;20045;-79
2023/04/07 00:19:00;;;;;;;0.20;0.15;;;;;;;;;;4976176;28;20034;-79
2023/04/07 00:21:26;;;;;;;0.35;0.22;;;;;;;;;;4992426;28;20042;-77
2023/04/07 00:23:52;;;;;;;0.20;0.10;;;;;;;;;;4994888;28;20049;-79
2023/04/07 00:26:18;;;;;;;0.85;0.30;;;;;;;;;;4997752;28;20046;-79
2023/04/07 00:28:44;;;;;;;0.30;0.30;;;;;;;;;;4987252;28;20050;-79
2023/04/07 00:31:10;;;;;;;0.32;0.32;;;;;;;;;;4997871;28;20038;-79
2023/04/07 00:33:36;;;;;;;0.20;0.10;;;;;;;;;;4979746;28;20045;-79
2023/04/07 00:36:02;;;;;;;0.20;0.10;;;;;;;;;;4982044;28;20762;-80
2023/04/07 00:38:28;;;;;;;0.73;0.40;;;;;;;;;;4980401;28;20610;-80
2023/04/07 00:40:58;;;;;;;0.20;0.10;;;;;;;;;;4998919;28;20116;-80
2023/04/07 00:43:24;;;;;;;0.25;0.25;;;;;;;;;;4997408;28;20050;-80
2023/04/07 00:45:50;;;;;;;0.20;0.10;;;;;;;;;;4979806;28;20173;-81
2023/04/07 00:48:16;;;;;;;0.20;0.10;;;;;;;;;;4997833;28;20120;-80
2023/04/07 00:50:44;;;;;;;0.20;0.10;;;;;;;;;;4987970;28;20067;-80
2023/04/07 00:53:11;;;;;;;0.20;0.10;;;;;;;;;;4995190;28;20050;-82
2023/04/07 00:55:37;;;;;;;0.20;0.20;;;;;;;;;;4996430;28;20038;-80
2023/04/07 00:58:06;;;;;;;0.25;0.15;;;;;;;;;;4991690;28;20042;-81
2023/04/07 01:00:37;;;;;;;0.20;0.10;;;;;;;;;;4972767;28;20114;-81
2023/04/07 01:03:10;;;;;;;0.30;0.20;;;;;;;;;;4985564;28;20045;-80
2023/04/07 01:05:48;;;;;;;0.20;0.10;;;;;;;;;;5000973;28;20105;-81
2023/04/07 01:08:17;;;;;;;0.20;0.17;;;;;;;;;;4977917;28;20108;-80
2023/04/07 01:10:51;;;;;;;0.38;0.38;;;;;;;;;;4967217;28;20128;-80
2023/04/07 01:13:38;;;;;;;0.20;0.10;;;;;;;;;;4976112;28;21552;-82
2023/04/07 01:16:09;;;;;;;0.40;0.22;;;;;;;;;;4981939;28;20052;-81
2023/04/07 01:18:36;;;;;;;0.30;0.20;;;;;;;;;;4999788;28;20075;-81
2023/04/07 01:21:15;;;;;;;0.20;0.10;;;;;;;;;;4961438;28;20044;-82
2023/04/07 01:23:56;;;;;;;0.20;0.10;;;;;;;;;;4965537;28;20049;-81
2023/04/07 01:26:29;;;;;;;0.20;0.10;;;;;;;;;;4979638;28;20530;-81
2023/04/07 01:29:04;;;;;;;0.20;0.10;;;;;;;;;;4977626;28;20045;-81
2023/04/07 01:31:30;;;;;;;0.20;0.10;;;;;;;;;;4982308;28;20133;-82
2023/04/07 01:33:58;;;;;;;0.30;0.30;;;;;;;;;;4994605;28;20040;-81
2023/04/07 01:36:27;;;;;;;0.20;0.10;;;;;;;;;;4987425;28;20076;-81
2023/04/07 01:38:53;;;;;;;0.20;0.10;;;;;;;;;;4976563;28;20052;-82
2023/04/07 01:41:20;;;;;;;0.52;0.52;;;;;;;;;;4993044;28;20037;-81
2023/04/07 01:43:46;;;;;;;0.40;0.38;;;;;;;;;;4977898;28;20116;-80
2023/04/07 01:46:13;;;;;;;0.28;0.20;;;;;;;;;;4981543;28;20044;-81
2023/04/07 01:48:40;;;;;;;0.20;0.20;;;;;;;;;;4980528;28;20122;-80
2023/04/07 01:51:06;;;;;;;0.20;0.10;;;;;;;;;;4984703;28;20041;-80
2023/04/07 01:53:32;;;;;;;0.50;0.30;;;;;;;;;;4998642;28;20545;-81
2023/04/07 01:55:58;;;;;;;0.20;0.20;;;;;;;;;;4994178;28;20474;-81
2023/04/07 01:58:27;;;;;;;0.20;0.10;;;;;;;;;;4994699;28;20052;-81
2023/04/07 02:00:53;;;;;;;0.20;0.10;;;;;;;;;;4984529;28;20048;-81
2023/04/07 02:03:43;;;;;;;1.17;0.43;;;;;;;;;;4998787;28;20050;-81
2023/04/07 02:06:10;;;;;;;0.20;0.10;;;;;;;;;;4975075;28;20051;-80
2023/04/07 02:08:38;;;;;;;0.20;0.10;;;;;;;;;;4996481;28;21164;-80
2023/04/07 02:11:06;;;;;;;0.20;0.20;;;;;;;;;;4986755;28;20034;-80
2023/04/07 02:13:33;;;;;;;0.28;0.28;;;;;;;;;;4997476;28;20406;-81
2023/04/07 02:16:01;;;;;;;0.20;0.20;;;;;;;;;;4993336;28;20050;-80
2023/04/07 02:18:28;;;;;;;0.20;0.10;;;;;;;;;;4978022;28;20135;-80
2023/04/07 02:20:55;;;;;;;0.20;0.15;;;;;;;;;;4968542;28;20056;-80
2023/04/07 02:23:21;;;;;;;0.28;0.17;;;;;;;;;;4967561;28;20064;-80
2023/04/07 02:25:47;;;;;;;0.20;0.10;;;;;;;;;;4979337;28;20053;-80
2023/04/07 02:28:13;;;;;;;0.52;0.25;;;;;;;;;;4980487;28;20447;-80
2023/04/07 02:30:39;;;;;;;0.25;0.15;;;;;;;;;;4980187;28;20460;-80
2023/04/07 02:33:05;;;;;;;0.20;0.10;;;;;;;;;;4978526;28;20530;-80
2023/04/07 02:35:31;;;;;;;0.20;0.10;;;;;;;;;;4981981;28;20053;-80
2023/04/07 02:37:57;;;;;;;0.20;0.20;;;;;;;;;;4968572;28;20109;-80
2023/04/07 02:40:23;;;;;;;0.20;0.10;;;;;;;;;;4982338;28;20554;-81
2023/04/07 02:42:49;;;;;;;0.20;0.20;;;;;;;;;;4984392;28;20136;-80
2023/04/07 02:45:15;;;;;;;0.90;0.38;;;;;;;;;;4980772;28;20056;-80
2023/04/07 02:47:41;;;;;;;0.38;0.20;;;;;;;;;;4993806;28;20037;-80
2023/04/07 02:50:08;;;;;;;0.20;0.10;;;;;;;;;;4989246;28;20092;-79
2023/04/07 02:52:34;;;;;;;0.20;0.10;;;;;;;;;;4996389;28;20399;-80
2023/04/07 02:55:00;;;;;;;0.20;0.10;;;;;;;;;;4995167;28;20044;-80
2023/04/07 02:57:26;;;;;;;0.55;0.20;;;;;;;;;;4994675;28;20709;-80
2023/04/07 02:59:54;;;;;;;0.40;0.40;;;;;;;;;;4980075;28;20044;-80
2023/04/07 03:02:20;;;;;;;0.20;0.10;;;;;;;;;;4999959;28;20046;-79
2023/04/07 03:04:46;;;;;;;0.20;0.10;;;;;;;;;;4995803;28;20127;-81
2023/04/07 03:07:11;;;;;;;2.75;0.63;;;;;;;;;;4997334;28;20042;-80
2023/04/07 03:09:37;;;;;;;0.20;0.10;;;;;;;;;;4984565;28;20101;-80
2023/04/07 03:12:03;;;;;;;0.57;0.57;;;;;;;;;;4994952;28;20046;-80
2023/04/07 03:14:29;;;;;;;0.20;0.10;;;;;;;;;;4981239;28;20046;-82
2023/04/07 03:16:56;;;;;;;0.22;0.22;;;;;;;;;;4999807;28;20034;-80
2023/04/07 03:19:22;;;;;;;0.20;0.20;;;;;;;;;;4980106;28;20049;-80
2023/04/07 03:21:48;;;;;;;0.20;0.20;;;;;;;;;;4982052;28;20046;-79
2023/04/07 03:24:14;;;;;;;1.48;0.63;;;;;;;;;;4998387;28;20530;-80
2023/04/07 03:26:40;;;;;;;0.20;0.10;;;;;;;;;;4983855;28;20053;-80
2023/04/07 03:29:06;;;;;;;0.22;0.22;;;;;;;;;;4996615;28;20046;-81
2023/04/07 03:31:32;;;;;;;1.08;0.52;;;;;;;;;;4999641;28;20092;-80
2023/04/07 03:33:58;;;;;;;0.47;0.47;;;;;;;;;;4996574;28;20033;-80
2023/04/07 03:36:26;;;;;;;0.20;0.10;;;;;;;;;;4988030;28;20524;-80
2023/04/07 03:38:52;;;;;;;0.20;0.10;;;;;;;;;;4988108;28;20038;-79
2023/04/07 03:41:18;;;;;;;0.20;0.10;;;;;;;;;;4997841;28;20469;-80
2023/04/07 03:43:45;;;;;;;0.20;0.10;;;;;;;;;;5001133;28;20117;-80
2023/04/07 03:46:11;;;;;;;0.20;0.10;;;;;;;;;;4993618;28;20074;-80
2023/04/07 03:48:37;;;;;;;0.20;0.10;;;;;;;;;;4984912;28;20123;-80
2023/04/07 03:51:03;;;;;;;0.30;0.20;;;;;;;;;;4994663;28;20506;-80
2023/04/07 03:53:29;;;;;;;0.20;0.10;;;;;;;;;;4983485;28;20037;-80
2023/04/07 03:55:55;;;;;;;0.20;0.10;;;;;;;;;;4984192;28;20041;-80
2023/04/07 03:58:21;;;;;;;0.20;0.10;;;;;;;;;;4988969;28;20054;-80
2023/04/07 04:00:47;;;;;;;0.20;0.10;;;;;;;;;;4999341;28;20753;-80
2023/04/07 04:03:13;;;;;;;0.20;0.10;;;;;;;;;;4993143;28;20120;-80
2023/04/07 04:05:39;;;;;;;0.28;0.28;;;;;;;;;;4993126;28;20045;-81
2023/04/07 04:08:06;;;;;;;0.38;0.30;;;;;;;;;;4994297;28;20260;-81
2023/04/07 04:10:32;;;;;;;0.20;0.20;;;;;;;;;;4990015;28;20046;-80
2023/04/07 04:13:02;;;;;;;0.20;0.10;;;;;;;;;;4991858;28;20050;-80
2023/04/07 04:15:28;;;;;;;0.20;0.10;;;;;;;;;;4992514;28;20099;-80
2023/04/07 04:17:54;;;;;;;0.73;0.47;;;;;;;;;;4971788;28;20572;-80
2023/04/07 04:20:21;;;;;;;0.63;0.60;;;;;;;;;;4993587;28;20335;-80
2023/04/07 04:22:47;;;;;;;0.20;0.10;;;;;;;;;;4996088;28;20088;-80
2023/04/07 04:25:13;;;;;;;0.20;0.10;;;;;;;;;;4995069;28;20050;-79
2023/04/07 04:27:39;;;;;;;0.20;0.10;;;;;;;;;;4995034;28;20034;-79
2023/04/07 04:30:05;;;;;;;0.55;0.30;;;;;;;;;;4988123;28;20041;-80
2023/04/07 04:32:31;;;;;;;0.20;0.10;;;;;;;;;;4997935;28;20046;-80
2023/04/07 04:34:57;;;;;;;0.20;0.10;;;;;;;;;;4993693;28;20049;-80
2023/04/07 04:37:23;;;;;;;0.20;0.10;;;;;;;;;;4992584;28;20077;-79
2023/04/07 04:39:49;;;;;;;0.22;0.20;;;;;;;;;;4995550;28;20045;-79
2023/04/07 04:42:15;;;;;;;0.40;0.40;;;;;;;;;;4997137;28;20088;-80
2023/04/07 04:44:41;;;;;;;3.92;0.30;;;;;;;;;;4996431;28;20037;-81
2023/04/07 04:47:07;;;;;;;0.20;0.10;;;;;;;;;;4995224;28;20044;-80
2023/04/07 04:49:33;;;;;;;0.20;0.10;;;;;;;;;;4984838;28;20564;-80
2023/04/07 04:51:59;;;;;;;0.20;0.10;;;;;;;;;;4984842;28;20048;-82
2023/04/07 04:54:25;;;;;;;0.20;0.10;;;;;;;;;;4998626;28;20034;-81
2023/04/07 04:56:52;;;;;;;0.20;0.17;;;;;;;;;;4998599;28;20525;-81
2023/04/07 04:59:18;;;;;;;0.32;0.32;;;;;;;;;;4996896;28;20501;-80
2023/04/07 05:01:44;;;;;;;0.20;0.10;;;;;;;;;;5006902;22;20046;-75
2023/04/07 05:04:10;;;;;;;0.20;0.20;;;;;;;;;;4979048;28;20039;-76
2023/04/07 05:06:36;;;;;;;0.20;0.10;;;;;;;;;;4966774;28;20042;-75
2023/04/07 05:09:02;;;;;;;1.38;0.50;;;;;;;;;;4975926;28;20104;-75
2023/04/07 05:11:28;;;;;;;0.52;0.52;;;;;;;;;;4960868;28;20039;-76
2023/04/07 05:13:54;;;;;;;0.20;0.10;;;;;;;;;;4927910;28;20039;-75
2023/04/07 05:16:20;;;;;;;0.20;0.10;;;;;;;;;;4947095;28;20043;-75
2023/04/07 05:18:46;;;;;;;0.20;0.10;;;;;;;;;;4953781;28;20432;-75
2023/04/07 05:21:12;;;;;;;0.52;0.30;;;;;;;;;;4973769;28;20053;-75
2023/04/07 05:23:38;;;;;;;0.20;0.10;;;;;;;;;;4958210;28;20043;-75
2023/04/07 05:26:04;;;;;;;0.95;0.30;;;;;;;;;;4959372;28;20105;-75
2023/04/07 05:28:30;;;;;;;0.20;0.10;;;;;;;;;;4957403;28;20129;-75
2023/04/07 05:30:56;;;;;;;0.20;0.10;;;;;;;;;;4955893;28;20035;-75
2023/04/07 05:33:22;;;;;;;0.20;0.10;;;;;;;;;;4953683;28;20423;-75
2023/04/07 05:35:48;;;;;;;0.20;0.10;;;;;;;;;;4951194;28;20673;-75
2023/04/07 05:38:15;;;;;;;0.20;0.10;;;;;;;;;;4957026;28;20495;-75
2023/04/07 05:40:41;;;;;;;0.20;0.20;;;;;;;;;;4954307;28;20113;-75
2023/04/07 05:43:07;;;;;;;0.20;0.10;;;;;;;;;;4956947;28;20051;-75
2023/04/07 05:45:33;;;;;;;0.20;0.10;;;;;;;;;;4953835;28;20513;-75
2023/04/07 05:47:59;;;;;;;0.20;0.15;;;;;;;;;;4952078;28;20039;-74
2023/04/07 05:50:26;;;;;;;0.20;0.10;;;;;;;;;;4960794;28;20517;-75
2023/04/07 05:52:52;;;;;;;0.20;0.20;;;;;;;;;;4958400;28;20043;-76
2023/04/07 05:55:18;;;;;;;0.20;0.10;;;;;;;;;;4955402;28;20046;-75
2023/04/07 05:57:44;;;;;;;0.20;0.10;;;;;;;;;;4956043;28;20058;-75
2023/04/07 06:00:10;;;;;;;1.13;0.63;;;;;;;;;;4954133;28;20085;-75
2023/04/07 06:02:36;;;;;;;0.20;0.10;;;;;;;;;;4957231;28;20140;-74
2023/04/07 06:05:02;;;;;;;0.20;0.10;;;;;;;;;;4943135;28;20054;-75
2023/04/07 06:07:28;;;;;;;0.20;0.15;;;;;;;;;;4952742;28;20093;-75
2023/04/07 06:09:54;;;;;;;0.20;0.10;;;;;;;;;;4954322;28;20026;-75
2023/04/07 06:12:20;;;;;;;0.35;0.35;;;;;;;;;;4942410;28;20141;-75
2023/04/07 06:14:50;;;;;;;0.32;0.32;;;;;;;;;;4961589;28;20069;-75
2023/04/07 06:17:16;;;;;;;0.20;0.10;;;;;;;;;;4964751;28;20044;-75
2023/04/07 06:19:43;;;;;;;0.75;0.75;;;;;;;;;;4951866;28;20077;-75
2023/04/07 06:22:09;;;;;;;0.45;0.45;;;;;;;;;;4964787;28;20043;-75
2023/04/07 06:24:35;;;;;;;0.73;0.43;;;;;;;;;;4963624;28;20050;-75
2023/04/07 06:27:02;;;;;;;0.20;0.10;;;;;;;;;;4959284;28;20038;-77
2023/04/07 06:29:28;;;;;;;0.57;0.57;;;;;;;;;;4963569;28;20095;-77
2023/04/07 06:31:54;;;;;;;0.40;0.20;;;;;;;;;;4960497;28;20035;-77
2023/04/07 06:34:20;;;;;;;0.73;0.40;;;;;;;;;;4959749;28;20042;-76
2023/04/07 06:36:46;;;;;;;0.20;0.13;;;;;;;;;;4956452;28;20511;-76
2023/04/07 06:39:12;;;;;;;1.65;0.43;;;;;;;;;;4951920;28;20070;-78
2023/04/07 06:41:41;;;;;;;0.20;0.10;;;;;;;;;;4953362;28;20542;-77
2023/04/07 06:44:08;;;;;;;0.32;0.32;;;;;;;;;;4941917;28;20602;-77
2023/04/07 06:46:34;;;;;;;0.20;0.05;;;;;;;;;;4958946;28;20374;-76
2023/04/07 06:49:00;;;;;;;0.20;0.10;;;;;;;;;;4973632;28;20042;-77
2023/04/07 06:51:26;;;;;;;0.20;0.10;;;;;;;;;;4950750;28;20649;-77
2023/04/07 06:53:52;;;;;;;0.20;0.13;;;;;;;;;;4951647;28;20049;-77
2023/04/07 06:56:18;;;;;;;0.30;0.20;;;;;;;;;;4960515;28;20047;-77
2023/04/07 06:58:44;;;;;;;0.22;0.22;;;;;;;;;;4956558;28;20035;-77
2023/04/07 07:01:10;;;;;;;0.63;0.55;;;;;;;;;;4958954;28;20380;-77
2023/04/07 07:03:36;;;;;;;0.20;0.20;;;;;;;;;;4947829;28;20034;-77
2023/04/07 07:06:02;;;;;;;0.20;0.10;;;;;;;;;;4961449;28;20035;-77
2023/04/07 07:08:29;;;;;;;0.20;0.10;;;;;;;;;;4950728;28;20043;-77
2023/04/07 07:10:55;;;;;;;0.20;0.10;;;;;;;;;;4958662;28;20042;-77
2023/04/07 07:13:22;;;;;;;0.20;0.17;;;;;;;;;;4954884;28;20511;-77
2023/04/07 07:15:49;;;;;;;0.63;0.63;;;;;;;;;;4946325;28;20050;-77
2023/04/07 07:18:15;;;;;;;0.20;0.20;;;;;;;;;;4955730;28;20047;-77
2023/04/07 07:20:41;;;;;;;0.40;0.30;;;;;;;;;;4956686;28;20045;-77
2023/04/07 07:23:07;;;;;;;0.20;0.10;;;;;;;;;;4963671;28;20310;-77
2023/04/07 07:25:33;;;;;;;0.20;0.10;;;;;;;;;;4960269;28;20050;-77
2023/04/07 07:27:59;;;;;;;0.30;0.30;;;;;;;;;;4963516;28;20088;-77
2023/04/07 07:30:25;;;;;;;0.20;0.10;;;;;;;;;;4941281;28;20459;-77
2023/04/07 07:32:52;;;;;;;0.20;0.20;;;;;;;;;;4960695;28;20488;-77
2023/04/07 07:35:18;;;;;;;0.20;0.10;;;;;;;;;;4948255;28;20039;-77
2023/04/07 07:37:44;;;;;;;0.40;0.30;;;;;;;;;;4945368;28;20062;-77
2023/04/07 07:40:10;;;;;;;0.20;0.10;;;;;;;;;;4959815;28;20397;-76
2023/04/07 07:42:37;;;;;;;0.73;0.30;;;;;;;;;;4984341;28;20482;-77
2023/04/07 07:45:04;;;;;;;0.30;0.20;;;;;;;;;;4955630;28;20134;-76
2023/04/07 07:47:30;;;;;;;0.20;0.10;;;;;;;;;;4951940;28;20050;-76
2023/04/07 07:49:56;;;;;;;0.52;0.52;;;;;;;;;;4965235;28;20050;-76
2023/04/07 07:52:22;;;;;;;0.30;0.20;;;;;;;;;;4944995;28;20039;-76
2023/04/07 07:54:48;;;;;;;0.20;0.10;;;;;;;;;;4963730;28;20048;-76
2023/04/07 07:57:14;;;;;;;0.20;0.10;;;;;;;;;;4962480;28;20058;-75
2023/04/07 07:59:41;;;;;;;0.20;0.10;;;;;;;;;;4963605;28;20050;-75
2023/04/07 08:02:07;;;;;;;0.20;0.10;;;;;;;;;;4965250;28;20041;-76
2023/04/07 08:04:33;;;;;;;0.20;0.20;;;;;;;;;;4962754;28;20419;-76
2023/04/07 08:06:59;;;;;;;0.20;0.10;;;;;;;;;;4958419;28;20034;-74
2023/04/07 08:09:26;;;;;;;0.20;0.10;;;;;;;;;;4940676;28;20047;-76
2023/04/07 08:11:52;;;;;;;0.20;0.10;;;;;;;;;;4952913;28;20507;-75
2023/04/07 08:14:18;;;;;;;0.20;0.10;;;;;;;;;;4972495;28;20041;-76
2023/04/07 08:16:44;;;;;;;0.20;0.10;;;;;;;;;;4962367;28;20046;-76
2023/04/07 08:19:10;;;;;;;0.32;0.10;;;;;;;;;;4961353;28;20125;-76
2023/04/07 08:21:37;;;;;;;0.40;0.38;;;;;;;;;;4968107;28;20125;-76
2023/04/07 08:24:03;;;;;;;0.20;0.10;;;;;;;;;;4955955;28;20074;-76
2023/04/07 08:26:29;;;;;;;4.75;0.95;;;;;;;;;;4954013;28;20549;-76
2023/04/07 08:28:55;;;;;;;0.20;0.20;;;;;;;;;;4944396;28;20515;-76
2023/04/07 08:31:21;;;;;;;0.20;0.10;;;;;;;;;;4955928;28;20116;-76
2023/04/07 08:33:47;;;;;;;0.20;0.10;;;;;;;;;;4956610;28;20125;-76
2023/04/07 08:36:13;;;;;;;0.20;0.20;;;;;;;;;;4947000;28;20047;-76
2023/04/07 08:38:39;;;;;;;0.20;0.10;;;;;;;;;;4940879;28;20109;-76
2023/04/07 08:41:12;;;;;;;0.20;0.10;;;;;;;;;;4970132;28;20325;-75
2023/04/07 08:43:40;;;;;;;0.20;0.10;;;;;;;;;;4961649;28;20464;-76
2023/04/07 08:46:08;;;;;;;0.20;0.10;;;;;;;;;;4952923;28;20126;-76
2023/04/07 08:48:35;;;;;;;0.20;0.10;;;;;;;;;;4947996;28;20042;-77
2023/04/07 08:51:05;;;;;;;0.82;0.40;;;;;;;;;;4958137;28;20043;-76
2023/04/07 08:53:51;;;;;;;0.20;0.10;;;;;;;;;;4948307;28;20530;-77
2023/04/07 08:56:17;;;;;;;0.20;0.10;;;;;;;;;;4961098;28;20223;-77
2023/04/07 08:58:45;;;;;;;0.20;0.10;;;;;;;;;;4960691;28;20511;-77
2023/04/07 09:01:11;;;;;;;0.20;0.10;;;;;;;;;;4965520;28;20202;-77
2023/04/07 09:03:37;;;;;;;3.33;0.30;;;;;;;;;;4963652;28;20507;-77
2023/04/07 09:06:04;;;;;;;0.20;0.10;;;;;;;;;;4959278;28;20136;-77
2023/04/07 09:08:30;;;;;;;0.20;0.10;;;;;;;;;;4961864;28;20043;-76
2023/04/07 09:10:56;;;;;;;0.20;0.10;;;;;;;;;;4958539;28;20046;-77
2023/04/07 09:13:26;;;;;;;0.30;0.22;;;;;;;;;;4946380;28;20042;-77
2023/04/07 09:15:52;;;;;;;0.20;0.10;;;;;;;;;;4952165;28;20047;-76
2023/04/07 09:18:18;;;;;;;0.45;0.20;;;;;;;;;;4960102;28;20110;-75
2023/04/07 09:21:01;;;;;;;0.20;0.20;;;;;;;;;;4957994;28;20046;-76
2023/04/07 09:23:31;;;;;;;0.20;0.10;;;;;;;;;;4963121;28;20138;-77
2023/04/07 09:26:23;;;;;;;0.20;0.10;;;;;;;;;;4975178;28;20030;-77
2023/04/07 09:28:54;;;;;;;0.20;0.10;;;;;;;;;;4947089;28;20472;-77
2023/04/07 09:31:25;;;;;;;0.63;0.47;;;;;;;;;;4962441;28;20430;-77
2023/04/07 09:33:51;;;;;;;0.20;0.10;;;;;;;;;;4939854;28;20039;-78
2023/04/07 09:36:18;;;;;;;0.20;0.10;;;;;;;;;;4957734;28;20038;-77
2023/04/07 09:38:45;;;;;;;0.22;0.15;;;;;;;;;;4945937;28;20050;-76
2023/04/07 09:41:15;;;;;;;0.22;0.22;;;;;;;;;;4980001;28;20046;-77
2023/04/07 09:43:43;;;;;;;0.20;0.20;;;;;;;;;;4960848;28;20046;-76
2023/04/07 09:46:19;;;;;;;0.20;0.10;;;;;;;;;;4954767;28;20038;-77
2023/04/07 09:48:47;;;;;;;0.20;0.10;;;;;;;;;;4955449;28;20090;-77
2023/04/07 09:51:14;;;;;;;0.20;0.10;;;;;;;;;;4972332;28;20069;-77
2023/04/07 09:53:45;;;;;;;0.20;0.20;;;;;;;;;;4942833;28;20054;-76
2023/04/07 09:56:11;;;;;;;0.20;0.10;;;;;;;;;;4961719;28;20058;-77
2023/04/07 09:58:39;;;;;;;0.20;0.10;;;;;;;;;;4957595;28;20436;-78
2023/04/07 10:01:07;;;;;;;0.30;0.30;;;;;;;;;;4961120;28;20058;-78
2023/04/07 10:03:33;;;;;;;0.20;0.20;;;;;;;;;;4959005;28;20072;-78
2023/04/07 10:06:02;;;;;;;0.20;0.10;;;;;;;;;;4945355;28;20038;-79
2023/04/07 10:08:31;;;;;;;0.20;0.10;;;;;;;;;;4958155;28;20587;-77
2023/04/07 10:10:57;;;;;;;2.38;0.35;;;;;;;;;;4955486;28;20050;-77
2023/04/07 10:13:24;;;;;;;0.50;0.22;;;;;;;;;;4961883;28;20043;-77
2023/04/07 10:15:50;;;;;;;0.20;0.20;;;;;;;;;;4959349;28;20048;-77
2023/04/07 10:18:17;;;;;;;0.20;0.10;;;;;;;;;;4963693;28;20051;-77
2023/04/07 10:20:44;;;;;;;0.30;0.20;;;;;;;;;;4968827;28;20126;-78
2023/04/07 10:23:17;;;;;;;0.20;0.20;;;;;;;;;;4963895;28;20043;-78
2023/04/07 10:25:44;;;;;;;0.22;0.22;;;;;;;;;;4954282;28;20050;-78
2023/04/07 10:28:12;;;;;;;0.45;0.20;;;;;;;;;;4962883;28;20528;-77
2023/04/07 10:30:38;;;;;;;0.20;0.10;;;;;;;;;;4971647;28;20035;-78
2023/04/07 10:33:04;;;;;;;0.20;0.15;;;;;;;;;;4962986;28;20431;-77
2023/04/07 10:35:49;;;;;;;0.30;0.20;;;;;;;;;;4956823;28;20038;-77
2023/04/07 10:38:17;;;;;;;0.20;0.17;;;;;;;;;;4960468;28;20068;-78
2023/04/07 10:40:43;;;;;;;0.20;0.10;;;;;;;;;;4961426;28;20042;-78
2023/04/07 10:43:10;;;;;;;0.30;0.20;;;;;;;;;;4942796;28;20520;-78
2023/04/07 10:45:52;;;;;;;0.35;0.32;;;;;;;;;;4948750;28;20083;-78
2023/04/07 10:48:18;;;;;;;0.20;0.10;;;;;;;;;;4965999;28;20039;-78
2023/04/07 10:50:45;;;;;;;0.20;0.20;;;;;;;;;;4963919;28;20046;-77
2023/04/07 10:53:13;;;;;;;0.50;0.40;;;;;;;;;;4963597;28;20276;-78
2023/04/07 10:55:40;;;;;;;0.20;0.10;;;;;;;;;;4962581;28;20488;-78
2023/04/07 10:58:16;;;;;;;0.20;0.17;;;;;;;;;;4964148;28;20130;-78
2023/04/07 11:00:43;;;;;;;0.20;0.10;;;;;;;;;;4951652;28;20275;-78
2023/04/07 11:03:12;;;;;;;0.20;0.10;;;;;;;;;;4989287;23;20416;-80
2023/04/07 11:05:42;;;;;;;0.20;0.15;;;;;;;;;;4942334;28;20043;-79
2023/04/07 11:08:08;;;;;;;0.20;0.10;;;;;;;;;;4951500;28;20046;-80
2023/04/07 11:10:35;;;;;;;0.20;0.10;;;;;;;;;;4955075;28;20065;-78
2023/04/07 11:13:02;;;;;;;0.20;0.10;;;;;;;;;;4954570;28;20047;-79
2023/04/07 11:15:28;;;;;;;0.85;0.20;;;;;;;;;;4957120;28;20049;-78
2023/04/07 11:18:15;;;;;;;0.20;0.10;;;;;;;;;;4959168;28;21598;-78
2023/04/07 11:20:42;;;;;;;0.20;0.10;;;;;;;;;;4956598;28;20047;-78
2023/04/07 11:23:09;;;;;;;0.20;0.10;;;;;;;;;;4940657;28;20031;-78
2023/04/07 11:25:35;;;;;;;0.20;0.20;;;;;;;;;;4964291;28;20103;-78
2023/04/07 11:28:03;;;;;;;0.20;0.10;;;;;;;;;;4963983;28;20047;-79
2023/04/07 11:30:29;;;;;;;0.52;0.22;;;;;;;;;;4946719;28;20047;-79
2023/04/07 11:32:55;;;;;;;0.20;0.10;;;;;;;;;;4959677;28;20562;-79
2023/04/07 11:35:22;;;;;;;0.20;0.10;;;;;;;;;;4958165;28;20049;-78
2023/04/07 11:37:49;;;;;;;0.22;0.22;;;;;;;;;;4941102;28;20036;-79
2023/04/07 11:40:32;;;;;;;0.30;0.30;;;;;;;;;;4938272;28;20359;-79
2023/04/07 11:42:58;;;;;;;0.20;0.15;;;;;;;;;;4950005;28;20077;-79
2023/04/07 11:45:24;;;;;;;0.20;0.10;;;;;;;;;;4936251;28;20540;-79
2023/04/07 11:47:50;;;;;;;0.20;0.10;;;;;;;;;;4957089;28;20070;-79
2023/04/07 11:50:16;;;;;;;0.20;0.10;;;;;;;;;;4941527;28;20042;-79
2023/04/07 11:52:42;;;;;;;0.32;0.20;;;;;;;;;;4933501;28;20089;-79
2023/04/07 11:55:18;;;;;;;0.20;0.10;;;;;;;;;;4943012;28;20031;-79
2023/04/07 11:57:44;;;;;;;0.30;0.30;;;;;;;;;;4926004;28;20500;-80
2023/04/07 12:00:12;;;;;;;0.50;0.20;;;;;;;;;;4950018;28;20102;-80
2023/04/07 12:02:38;;;;;;;0.32;0.17;;;;;;;;;;4940095;28;20053;-81
2023/04/07 12:05:04;;;;;;;0.30;0.15;;;;;;;;;;4936310;28;20039;-80
2023/04/07 12:07:30;;;;;;;0.40;0.20;;;;;;;;;;4955614;28;20042;-81
2023/04/07 12:09:56;;;;;;;0.20;0.10;;;;;;;;;;4939023;28;20595;-82
2023/04/07 12:12:27;;;;;;;0.20;0.10;;;;;;;;;;4958918;28;20043;-81
2023/04/07 12:14:53;;;;;;;0.20;0.10;;;;;;;;;;4955818;28;20047;-80
2023/04/07 12:17:22;;;;;;;0.20;0.10;;;;;;;;;;4960593;28;20053;-80
2023/04/07 12:19:48;;;;;;;0.20;0.20;;;;;;;;;;4959568;28;20045;-80
2023/04/07 12:22:14;;;;;;;0.43;0.43;;;;;;;;;;4959276;28;20122;-81
2023/04/07 12:24:40;;;;;;;0.20;0.10;;;;;;;;;;4959333;28;20069;-79
2023/04/07 12:27:06;;;;;;;0.30;0.20;;;;;;;;;;4971385;28;20035;-79
2023/04/07 12:29:33;;;;;;;0.20;0.10;;;;;;;;;;4974258;28;20035;-80
2023/04/07 12:31:59;;;;;;;0.20;0.10;;;;;;;;;;4957362;28;20045;-80
2023/04/07 12:34:26;;;;;;;0.20;0.10;;;;;;;;;;4942437;28;20047;-81
2023/04/07 12:36:52;;;;;;;0.32;0.17;;;;;;;;;;4937581;28;20038;-79
2023/04/07 12:39:18;;;;;;;0.20;0.10;;;;;;;;;;4955948;28;20047;-82
2023/04/07 12:41:46;;;;;;;0.20;0.10;;;;;;;;;;4946357;28;20070;-80
2023/04/07 12:44:12;;;;;;;0.20;0.20;;;;;;;;;;4953890;28;20039;-80
2023/04/07 12:46:38;;;;;;;0.63;0.30;;;;;;;;;;4952903;28;20051;-80
2023/04/07 12:49:04;;;;;;;0.20;0.10;;;;;;;;;;4971618;28;20073;-80
2023/04/07 12:51:32;;;;;;;0.63;0.20;;;;;;;;;;4961945;28;20415;-79
2023/04/07 12:53:59;;;;;;;0.20;0.10;;;;;;;;;;4968311;28;20090;-79
2023/04/07 12:56:26;;;;;;;0.30;0.17;;;;;;;;;;4941563;28;20137;-80
2023/04/07 12:58:53;;;;;;;0.30;0.22;;;;;;;;;;4960985;28;20059;-80
2023/04/07 13:01:19;;;;;;;0.20;0.20;;;;;;;;;;4947890;28;20065;-81
2023/04/07 13:03:45;;;;;;;0.20;0.10;;;;;;;;;;4948196;28;20050;-80
2023/04/07 13:06:11;;;;;;;1.67;0.20;;;;;;;;;;4960711;28;20051;-80
2023/04/07 13:08:38;;;;;;;0.20;0.10;;;;;;;;;;4945816;28;20039;-79
2023/04/07 13:11:04;;;;;;;0.20;0.10;;;;;;;;;;4962174;28;20038;-81
2023/04/07 13:13:30;;;;;;;0.20;0.20;;;;;;;;;;4960229;28;20403;-79
2023/04/07 13:15:56;;;;;;;0.20;0.10;;;;;;;;;;4961217;28;20039;-79
2023/04/07 13:18:22;;;;;;;0.20;0.20;;;;;;;;;;4950556;28;20925;-80
2023/04/07 13:20:48;;;;;;;0.30;0.13;;;;;;;;;;4961835;28;20039;-79
2023/04/07 13:23:15;;;;;;;0.25;0.20;;;;;;;;;;4958237;28;20193;-80
2023/04/07 13:25:41;;;;;;;0.20;0.10;;;;;;;;;;4962180;28;20384;-79
2023/04/07 13:28:07;;;;;;;0.20;0.10;;;;;;;;;;4974231;28;20050;-81
2023/04/07 13:30:33;;;;;;;0.20;0.20;;;;;;;;;;4946235;28;20070;-78
2023/04/07 13:32:59;;;;;;;0.20;0.10;;;;;;;;;;4964193;28;20057;-81
2023/04/07 13:35:25;;;;;;;0.25;0.25;;;;;;;;;;4963797;28;20035;-80
2023/04/07 13:37:51;;;;;;;0.20;0.10;;;;;;;;;;4957747;28;20043;-80
2023/04/07 13:40:17;;;;;;;0.20;0.10;;;;;;;;;;4964686;28;20050;-79
2023/04/07 13:42:43;;;;;;;0.20;0.20;;;;;;;;;;4966610;28;20507;-80
2023/04/07 13:45:10;;;;;;;0.20;0.10;;;;;;;;;;4962119;28;20133;-79
2023/04/07 13:47:36;;;;;;;0.40;0.30;;;;;;;;;;4955554;28;20142;-80
2023/04/07 13:50:02;;;;;;;0.20;0.10;;;;;;;;;;4962390;28;20039;-79
2023/04/07 13:52:29;;;;;;;0.40;0.30;;;;;;;;;;4966308;28;20046;-80
2023/04/07 13:54:56;;;;;;;0.20;0.10;;;;;;;;;;4943520;28;20035;-79
2023/04/07 13:57:22;;;;;;;0.20;0.10;;;;;;;;;;4954505;28;20054;-80
2023/04/07 13:59:51;;;;;;;0.32;0.32;;;;;;;;;;4960100;28;20522;-81
2023/04/07 14:02:17;;;;;;;0.35;0.35;;;;;;;;;;4957674;28;20051;-80
2023/04/07 14:04:43;;;;;;;0.52;0.45;;;;;;;;;;4944339;28;20053;-80
2023/04/07 14:07:09;;;;;;;2.40;0.30;;;;;;;;;;4956844;28;20086;-79
2023/04/07 14:09:36;;;;;;;0.20;0.20;;;;;;;;;;4977794;28;20034;-79
2023/04/07 14:12:02;;;;;;;0.30;0.20;;;;;;;;;;4960808;28;20400;-78
2023/04/07 14:14:28;;;;;;;0.20;0.10;;;;;;;;;;4955176;28;20043;-81
2023/04/07 14:16:54;;;;;;;0.20;0.10;;;;;;;;;;4964180;28;20051;-78
2023/04/07 14:19:24;;;;;;;0.30;0.20;;;;;;;;;;4959988;28;20129;-77
2023/04/07 14:21:50;;;;;;;1.52;0.55;;;;;;;;;;4961054;28;20125;-77
2023/04/07 14:24:16;;;;;;;0.20;0.10;;;;;;;;;;4959228;28;20065;-77
2023/04/07 14:26:43;;;;;;;0.20;0.13;;;;;;;;;;4963066;28;20049;-77
2023/04/07 14:29:09;;;;;;;0.20;0.10;;;;;;;;;;4964153;28;20043;-81
2023/04/07 14:31:35;;;;;;;0.20;0.17;;;;;;;;;;4947240;28;20228;-79
2023/04/07 14:34:01;;;;;;;0.73;0.63;;;;;;;;;;4962675;28;20338;-79
2023/04/07 14:36:28;;;;;;;0.55;0.40;;;;;;;;;;4955402;28;20053;-78
2023/04/07 14:38:54;;;;;;;0.20;0.20;;;;;;;;;;4943400;28;20184;-78
2023/04/07 14:41:20;;;;;;;0.65;0.45;;;;;;;;;;4964526;28;20039;-78
2023/04/07 14:43:48;;;;;;;0.50;0.50;;;;;;;;;;4948848;28;20061;-77